CheckWX is a tool to help pilots better visualize weather data.  It is not intended as a substitute for an official pre-flight weather briefing.

19:00:32 UTC

KUNV TAF
University Park Airport
State College, Pennsylvania, USA
KUNV 121722Z 1218/1318 32013G23KT P6SM BKN040 FM130000 32012KT P6SM SCT040 FM131400 30007KT P6SM SCT090

Nov-12@
18:00 UTC

Nov-12 @ 18:00 UTC

Nov-13@
00:00 UTC

Nov-13 @ 00:00 UTC

KUNV 121722Z 1218/1318 32013G23KT P6SM BKN040
Wind
  • 320° at 13 KTS
  • {Gusting to 23 KTS
Cloud Levels
  • Broken at 4,000' AGL

Nov-13@
00:00 UTC

Nov-13 @ 00:00 UTC

Nov-13@
14:00 UTC

Nov-13 @ 14:00 UTC

FM130000 32012KT P6SM SCT040

From

From Standard forecast or significant change

Wind
  • 320° at 12 KTS
Cloud Levels
  • Scattered at 4,000' AGL

Nov-13@
14:00 UTC

Nov-13 @ 14:00 UTC

Nov-13@
18:00 UTC

Nov-13 @ 18:00 UTC

FM131400 30007KT P6SM SCT090

From

From Standard forecast or significant change

Wind
  • 300° at 7 KTS
Cloud Levels
  • Scattered at 9,000' AGL